YLIS

Details ICAO YLIS (LSY)
Name Lismore
Region Australia
Timezone Australia/Sydney (UTC+10.0)
Plans Departing 12
Arriving 11
Stats Elevation 35 ft / 11 m (AMSL)
Location -28.830900° 153.258000°
Runways 1
Magnetic Variation 11.478° E
Sunrise 2019-05-19 20:26:31 UTC / 2019-05-20 06:26:31 Local
Sunset 2019-05-20 07:03:13 UTC / 2019-05-20 17:03:13 Local
Advertisement - Login to hide

Runways

ID Width Length Bearing (true/mag) Surface Threshold Overrun Markings Lighting
15 98 ft / 30 m 5,421 ft / 1,652 m 157.30° / 145.82° ASPHALT 0 ft / 0 m 0 ft / 0 m APP EDGE THRESHOLD REIL-OMNI
33 98 ft / 30 m 5,421 ft / 1,652 m 337.30° / 325.82° ASPHALT 0 ft / 0 m 0 ft / 0 m APP EDGE THRESHOLD REIL-OMNI

Map

Weather


0- 5 10 15 20 25 30 35+ Temperature / °C

Clouds and Precipitation
Forecast for 2019-05-20 00:00 UTC. Updated 6 hours ago

Ground ~20,000 ft ~40,000 ft Winds

METAR

YLIS 200200Z AUTO 24006KT 9999 // OVC062 21/16 Q1026

TAF

Not found

Frequencies

Unicom 124.20 MHz LISMORE MULT
Unicom 119.60 MHz ACTIVATE LIGHTS ONLY MULT
Tower 120.30 MHz BRISBANE CNTR
Warning: Do not use this data for real-world aviation or navigation. No guarantee of current accuracy is given.